Time;durP1;ratioP1;P1;durP2;ratioP2;P2;SDS_P1;SDS_P2;PMS_P1;PMS_P2;Temp;Humidity;BMP_temperature;BMP_pressure;BME280_temperature;BME280_humidity;BME280_pressure;Samples;Min_cycle;Max_cycle;Signal;HPM_P1;HPM_P2
2022/03/28 00:00:09;;;;;;;21.38;14.45;;;8.90;53.80;;;7.71;53.38;96881.09;5001848;28;20054;-64
2022/03/28 00:02:37;;;;;;;24.27;14.70;;;8.90;53.60;;;7.67;53.00;96874.47;5004629;28;20131;-64
2022/03/28 00:05:03;;;;;;;22.27;13.75;;;8.80;54.00;;;7.64;53.97;96873.00;4991736;28;20121;-63
2022/03/28 00:07:29;;;;;;;23.73;13.98;;;8.80;54.30;;;7.63;53.29;96868.72;5008092;28;20030;-63
2022/03/28 00:09:55;;;;;;;22.45;14.50;;;8.80;54.20;;;7.61;53.34;96869.84;4990838;28;20407;-62
2022/03/28 00:12:21;;;;;;;21.00;13.25;;;8.80;54.00;;;7.59;53.97;96866.56;4991720;28;20309;-63
2022/03/28 00:14:47;;;;;;;19.58;14.40;;;8.70;54.10;;;7.54;53.96;96861.78;5008873;28;20033;-63
2022/03/28 00:17:12;;;;;;;23.33;14.52;;;8.70;54.00;;;7.50;54.12;96859.63;4989609;28;20049;-64
2022/03/28 00:19:38;;;;;;;22.35;14.60;;;8.60;54.20;;;7.47;53.72;96857.28;5007627;28;20117;-64
2022/03/28 00:22:04;;;;;;;21.25;13.82;;;8.60;54.60;;;7.43;53.70;96855.97;5007779;28;20050;-64
2022/03/28 00:24:30;;;;;;;22.67;14.85;;;8.60;54.30;;;7.38;54.23;96852.00;5007600;28;20089;-64
2022/03/28 00:26:56;;;;;;;21.90;14.98;;;8.60;54.10;;;7.35;54.56;96852.31;5005318;28;20058;-64
2022/03/28 00:29:22;;;;;;;27.08;12.50;;;8.50;54.30;;;7.31;53.68;96853.59;5024049;28;20037;-63
2022/03/28 00:31:47;;;;;;;20.58;14.20;;;8.50;54.70;;;7.26;54.43;96849.78;4999741;28;20053;-64
2022/03/28 00:34:15;;;;;;;23.98;14.48;;;8.50;54.40;;;7.22;54.06;96854.47;5004214;28;20038;-64
2022/03/28 00:36:41;;;;;;;24.33;13.25;;;8.40;55.00;;;7.16;54.42;96855.06;4989310;28;20395;-64
2022/03/28 00:39:07;;;;;;;22.27;14.48;;;8.30;55.10;;;7.11;54.20;96853.88;4995033;28;20038;-64
2022/03/28 00:41:33;;;;;;;21.55;14.18;;;8.30;55.20;;;7.08;54.51;96852.38;5003992;28;20042;-64
2022/03/28 00:43:59;;;;;;;22.23;15.55;;;8.30;55.00;;;7.05;54.62;96850.06;4999579;28;20033;-64
2022/03/28 00:46:25;;;;;;;24.00;14.18;;;8.20;54.90;;;6.99;54.57;96843.63;5007707;28;20142;-64
2022/03/28 00:48:51;;;;;;;22.05;14.55;;;8.20;55.30;;;6.96;55.26;96845.72;5007861;28;20061;-63
2022/03/28 00:51:18;;;;;;;22.27;14.00;;;8.10;55.70;;;6.93;55.34;96843.41;4992538;28;20030;-64
2022/03/28 00:53:44;;;;;;;23.88;13.55;;;8.10;55.70;;;6.88;54.74;96843.03;4991639;28;20034;-64
2022/03/28 00:56:12;;;;;;;27.13;13.95;;;8.10;55.90;;;6.82;54.79;96838.38;5006820;28;20034;-64
2022/03/28 00:58:38;;;;;;;24.15;14.95;;;7.90;55.80;;;6.78;55.38;96839.63;5000322;28;20030;-66
2022/03/28 01:01:04;;;;;;;23.85;14.40;;;7.90;56.10;;;6.74;55.10;96845.16;5002228;28;20398;-64
2022/03/28 01:03:29;;;;;;;22.58;14.60;;;7.90;56.10;;;6.70;55.73;96841.19;5001838;28;20033;-64
2022/03/28 01:05:55;;;;;;;24.65;15.20;;;7.90;56.10;;;6.68;55.34;96834.47;5003578;28;20116;-64
2022/03/28 01:08:22;;;;;;;24.25;12.88;;;7.80;56.40;;;6.62;55.05;96838.50;5006230;28;20033;-63
2022/03/28 01:10:48;;;;;;;22.55;13.98;;;7.70;56.50;;;6.60;56.07;96837.00;5001869;28;20056;-64
2022/03/28 01:13:14;;;;;;;20.58;14.38;;;7.80;56.60;;;6.58;56.27;96828.47;5007207;28;20041;-64
2022/03/28 01:15:39;;;;;;;20.60;14.57;;;7.70;56.70;;;6.54;56.58;96827.94;4985816;28;20062;-64
2022/03/28 01:18:05;;;;;;;26.08;13.25;;;7.70;56.90;;;6.50;55.23;96826.56;5002010;28;20034;-64
2022/03/28 01:20:32;;;;;;;21.70;14.38;;;7.70;57.00;;;6.48;55.81;96827.69;5006137;28;20026;-64
2022/03/28 01:22:58;;;;;;;25.15;14.82;;;7.70;57.00;;;6.47;56.72;96834.72;4991908;28;20498;-64
2022/03/28 01:25:25;;;;;;;20.83;14.27;;;7.70;57.10;;;6.44;56.68;96827.16;5015560;28;20026;-63
2022/03/28 01:27:54;;;;;;;25.17;14.65;;;7.70;56.80;;;6.44;57.15;96827.16;4992019;28;20041;-64
2022/03/28 01:30:21;;;;;;;22.95;14.32;;;7.70;56.90;;;6.43;56.58;96826.34;4985640;28;20398;-64
2022/03/28 01:32:51;;;;;;;26.98;13.27;;;7.70;56.60;;;6.38;57.10;96827.75;5008569;28;20022;-64
2022/03/28 01:35:36;;;;;;;25.70;15.50;;;7.60;56.60;;;6.31;57.16;96821.44;4990874;28;20413;-64
2022/03/28 01:38:07;;;;;;;25.50;13.60;;;7.60;56.70;;;6.25;56.37;96811.56;4989121;28;20095;-64
2022/03/28 01:40:34;;;;;;;19.67;14.38;;;7.50;56.80;;;6.19;56.32;96812.97;5007200;28;20040;-64
2022/03/28 01:43:00;;;;;;;21.50;14.13;;;7.50;57.00;;;6.16;56.94;96812.44;4995458;28;20044;-64
2022/03/28 01:45:26;;;;;;;22.95;15.18;;;7.30;57.40;;;6.12;56.49;96811.91;4994210;28;20042;-64
2022/03/28 01:47:52;;;;;;;24.48;15.57;;;7.40;57.50;;;6.04;57.26;96807.41;5008661;28;20635;-64
2022/03/28 01:50:18;;;;;;;26.15;13.55;;;7.30;57.50;;;5.99;57.18;96801.78;5007100;28;20530;-64
2022/03/28 01:52:43;;;;;;;57.55;45.22;;;7.20;57.90;;;5.94;57.14;96800.56;5006383;28;20030;-64
2022/03/28 01:55:09;;;;;;;29.88;21.00;;;7.20;58.20;;;5.92;57.84;96811.16;5010159;28;20432;-64
2022/03/28 01:57:39;;;;;;;32.97;17.02;;;7.10;58.40;;;5.88;57.49;96809.75;4994591;28;20073;-64
2022/03/28 02:00:07;;;;;;;26.20;16.85;;;7.10;58.60;;;5.83;57.76;96811.97;5006074;28;20034;-64
2022/03/28 02:02:33;;;;;;;26.00;17.02;;;7.00;58.80;;;5.81;57.63;96798.25;4995826;28;20099;-64
2022/03/28 02:04:59;;;;;;;23.63;17.33;;;7.10;58.80;;;5.78;58.19;96795.91;5009606;28;20045;-64
2022/03/28 02:07:25;;;;;;;35.25;19.88;;;7.10;58.90;;;5.73;58.41;96800.75;4993835;28;20485;-64
2022/03/28 02:09:50;;;;;;;37.15;25.17;;;7.10;59.50;;;5.69;59.10;96791.56;5010383;28;20041;-64
2022/03/28 02:12:16;;;;;;;29.52;22.58;;;7.00;59.50;;;5.67;58.49;96794.31;5003657;28;20173;-64
2022/03/28 02:14:42;;;;;;;27.70;16.13;;;7.00;59.90;;;5.66;58.55;96799.63;5008469;28;20030;-64
2022/03/28 02:17:08;;;;;;;23.10;13.13;;;6.90;59.90;;;5.62;57.98;96798.28;5011176;28;20115;-64
2022/03/28 02:19:34;;;;;;;23.70;13.65;;;6.90;60.00;;;5.59;58.80;96799.38;5011671;28;20498;-64
2022/03/28 02:22:00;;;;;;;22.02;14.52;;;6.90;60.00;;;5.58;58.99;96786.50;5011041;28;20037;-65
2022/03/28 02:24:26;;;;;;;20.75;14.88;;;6.90;59.90;;;5.59;59.75;96790.75;5007530;28;20394;-64
2022/03/28 02:26:52;;;;;;;27.98;18.90;;;6.90;59.90;;;5.54;59.84;96789.38;5011063;28;20088;-64
2022/03/28 02:29:18;;;;;;;25.55;13.27;;;6.90;59.80;;;5.50;58.47;96795.84;5011644;28;20056;-64
2022/03/28 02:31:43;;;;;;;20.83;14.73;;;6.80;59.90;;;5.47;59.97;96790.91;5007021;28;20033;-64
2022/03/28 02:34:09;;;;;;;26.02;14.68;;;6.80;59.70;;;5.44;59.32;96791.19;5009688;28;20065;-63
2022/03/28 02:36:35;;;;;;;20.58;14.02;;;6.70;59.80;;;5.43;59.32;96794.78;5011452;28;20121;-64
2022/03/28 02:39:00;;;;;;;21.25;13.05;;;6.70;59.70;;;5.39;58.74;96787.34;5009700;28;20053;-63
2022/03/28 02:41:26;;;;;;;22.75;14.07;;;6.70;59.70;;;5.37;59.30;96786.66;5008034;28;20038;-64
2022/03/28 02:43:52;;;;;;;22.58;14.48;;;6.70;59.80;;;5.35;59.48;96788.59;4990525;28;20038;-63
2022/03/28 02:46:18;;;;;;;19.17;14.27;;;6.70;59.60;;;5.33;59.96;96783.50;5007317;28;20563;-63
2022/03/28 02:48:44;;;;;;;23.92;14.85;;;6.70;59.50;;;5.32;59.25;96781.03;4990726;28;20030;-63
2022/03/28 02:51:09;;;;;;;23.23;13.48;;;6.60;59.60;;;5.29;59.28;96787.38;5006931;28;20033;-63
2022/03/28 02:53:35;;;;;;;27.52;14.52;;;6.60;59.60;;;5.27;59.28;96778.84;5009122;28;20510;-63
2022/03/28 02:56:01;;;;;;;21.83;13.82;;;6.60;59.70;;;5.25;60.21;96780.78;4989944;28;20108;-63
2022/03/28 02:58:27;;;;;;;25.60;13.68;;;6.60;59.70;;;5.24;59.42;96779.13;5012187;28;20030;-63
2022/03/28 03:00:53;;;;;;;30.50;22.77;;;6.60;59.70;;;5.23;60.28;96778.31;4983860;28;20513;-63
2022/03/28 03:03:18;;;;;;;53.97;34.67;;;6.60;59.80;;;5.27;59.31;96785.88;5008502;28;20559;-63
2022/03/28 03:05:46;;;;;;;74.75;43.67;;;6.60;59.60;;;5.22;58.94;96775.84;5006867;28;20517;-63
2022/03/28 03:08:12;;;;;;;37.70;22.70;;;6.60;59.40;;;5.19;58.94;96776.09;5010241;28;20117;-63
2022/03/28 03:10:39;;;;;;;35.20;22.40;;;6.60;59.40;;;5.19;59.90;96778.72;4989666;28;20100;-64
2022/03/28 03:13:05;;;;;;;36.63;20.17;;;6.60;60.10;;;5.19;59.51;96778.72;4989955;28;20046;-64
2022/03/28 03:15:31;;;;;;;34.75;25.08;;;6.60;60.20;;;5.20;59.81;96775.13;5010102;28;20453;-64
2022/03/28 03:17:57;;;;;;;32.72;22.80;;;6.70;59.90;;;5.23;59.60;96777.50;5004913;28;20259;-64
2022/03/28 03:20:23;;;;;;;33.97;22.58;;;6.70;59.40;;;5.23;59.39;96777.50;5007757;28;20041;-64
2022/03/28 03:22:48;;;;;;;32.17;19.10;;;6.70;59.20;;;5.22;59.85;96778.47;5009924;28;20026;-65
2022/03/28 03:25:14;;;;;;;27.00;17.55;;;6.60;59.20;;;5.20;60.26;96777.75;5009218;28;20049;-65
2022/03/28 03:27:40;;;;;;;22.65;14.70;;;6.60;59.00;;;5.21;59.84;96779.44;5003317;28;20494;-65
2022/03/28 03:30:08;;;;;;;23.55;13.20;;;6.60;58.80;;;5.17;59.44;96775.41;5001336;28;20042;-66
2022/03/28 03:32:35;;;;;;;24.10;14.60;;;6.60;59.10;;;5.16;59.36;96781.59;4989233;28;20080;-63
2022/03/28 03:35:02;;;;;;;25.67;15.18;;;6.60;59.10;;;5.12;58.94;96780.25;4990515;28;20034;-63
2022/03/28 03:37:28;;;;;;;27.58;13.43;;;6.40;58.60;;;5.05;59.29;96773.94;5005116;28;20274;-63
2022/03/28 03:39:54;;;;;;;25.10;15.48;;;6.30;58.60;;;5.00;59.42;96781.34;5008653;28;20026;-63
2022/03/28 03:42:20;;;;;;;23.92;12.75;;;6.30;58.80;;;4.99;58.81;96777.09;4990672;28;20133;-64
2022/03/28 03:44:45;;;;;;;22.55;14.50;;;6.30;58.50;;;4.95;58.88;96773.09;5008204;28;20409;-64
2022/03/28 03:47:11;;;;;;;26.52;15.30;;;6.40;58.80;;;4.95;58.69;96773.09;5005743;28;20045;-64
2022/03/28 03:49:37;;;;;;;25.55;13.70;;;6.30;59.00;;;4.92;58.53;96772.41;5009480;28;20206;-64
2022/03/28 03:52:03;;;;;;;24.23;13.45;;;6.30;59.30;;;4.90;59.06;96779.56;4988292;28;20035;-63
2022/03/28 03:54:30;;;;;;;20.55;15.18;;;6.40;59.00;;;4.90;59.46;96776.94;5009434;28;20022;-63
2022/03/28 03:56:55;;;;;;;23.70;15.02;;;6.40;58.80;;;4.90;59.90;96774.34;5004421;28;20042;-63
2022/03/28 03:59:21;;;;;;;25.67;14.95;;;6.40;58.80;;;4.89;58.93;96780.50;5008812;28;20038;-64
2022/03/28 04:01:47;;;;;;;26.73;14.20;;;6.40;58.90;;;4.87;58.76;96772.00;5009199;28;20038;-63
2022/03/28 04:04:12;;;;;;;28.42;14.18;;;6.40;58.90;;;4.84;59.52;96774.91;5008860;28;20437;-63
2022/03/28 04:06:39;;;;;;;22.15;14.90;;;6.30;59.00;;;4.84;59.60;96772.28;5000957;28;20504;-64
2022/03/28 04:09:05;;;;;;;22.60;15.52;;;6.30;58.80;;;4.84;59.50;96769.69;5001250;28;20417;-64
2022/03/28 04:11:31;;;;;;;25.45;14.70;;;6.30;59.00;;;4.83;59.15;96769.81;5009348;28;20084;-64
2022/03/28 04:13:57;;;;;;;27.23;13.60;;;6.30;59.20;;;4.80;59.70;96776.13;4989652;28;20515;-63
2022/03/28 04:16:23;;;;;;;25.20;15.38;;;6.20;59.20;;;4.79;59.55;96773.66;5009434;28;20034;-64
2022/03/28 04:18:49;;;;;;;21.95;15.35;;;6.20;59.30;;;4.78;59.86;96767.63;5007828;28;20053;-63
2022/03/28 04:21:15;;;;;;;22.52;14.85;;;6.30;59.40;;;4.78;59.97;96767.63;5010216;28;20497;-63
2022/03/28 04:23:40;;;;;;;22.33;15.32;;;6.30;59.60;;;4.78;60.13;96772.03;4986545;28;20569;-63
2022/03/28 04:26:06;;;;;;;24.27;14.27;;;6.20;59.70;;;4.76;59.44;96774.75;5021415;28;20498;-63
2022/03/28 04:28:32;;;;;;;23.92;15.60;;;6.20;59.70;;;4.72;59.96;96768.16;5005811;28;20502;-63
2022/03/28 04:30:58;;;;;;;28.45;14.07;;;6.10;59.80;;;4.69;59.60;96772.81;5009314;28;20119;-63
2022/03/28 04:33:23;;;;;;;24.50;15.73;;;6.10;60.10;;;4.67;60.35;96772.13;5007968;28;20037;-62
2022/03/28 04:35:50;;;;;;;30.23;17.65;;;6.10;60.40;;;4.65;60.41;96777.47;4972445;28;20030;-66
2022/03/28 04:38:16;;;;;;;28.55;20.38;;;6.10;60.90;;;4.63;60.76;96768.16;5002180;28;20507;-67
2022/03/28 04:40:41;;;;;;;29.02;19.70;;;6.10;61.20;;;4.64;60.78;96764.59;4991997;28;20038;-66
2022/03/28 04:43:07;;;;;;;24.23;15.00;;;6.10;61.20;;;4.63;61.12;96758.56;5001138;28;20481;-63
2022/03/28 04:45:33;;;;;;;30.10;18.17;;;6.10;61.10;;;4.62;60.93;96772.53;5004101;28;20030;-65
2022/03/28 04:48:00;;;;;;;28.40;20.40;;;6.10;61.50;;;4.63;61.43;96768.97;5003533;28;20548;-65
2022/03/28 04:50:26;;;;;;;33.25;19.02;;;6.10;61.50;;;4.63;61.49;96774.19;4988317;28;20394;-66
2022/03/28 04:52:52;;;;;;;27.45;18.40;;;6.10;61.60;;;4.57;61.95;96772.97;5007345;28;20037;-64
2022/03/28 04:55:18;;;;;;;25.20;15.05;;;6.00;61.70;;;4.55;61.50;96768.84;5009475;28;20448;-66
2022/03/28 04:57:44;;;;;;;24.95;14.93;;;6.00;62.30;;;4.51;61.44;96770.03;5005955;28;20062;-65
2022/03/28 05:00:10;;;;;;;27.52;16.20;;;6.00;62.20;;;4.50;62.31;96773.59;5003870;28;20112;-65
2022/03/28 05:02:36;;;;;;;24.17;13.98;;;5.90;62.40;;;4.43;62.03;96764.69;5009231;28;20472;-65
2022/03/28 05:05:06;;;;;;;26.77;14.48;;;5.80;62.80;;;4.35;62.56;96761.94;5008046;28;20065;-64
2022/03/28 05:07:32;;;;;;;23.02;15.60;;;5.70;63.00;;;4.28;62.62;96770.28;4991955;28;20053;-65
2022/03/28 05:09:58;;;;;;;33.47;15.60;;;5.70;63.50;;;4.27;63.04;96767.81;4992135;28;20042;-65
2022/03/28 05:12:24;;;;;;;24.05;13.63;;;5.70;63.60;;;4.24;62.89;96762.88;4990820;28;20537;-65
2022/03/28 05:14:51;;;;;;;20.90;14.93;;;5.70;64.10;;;4.27;63.97;96763.41;4991527;28;20425;-65
2022/03/28 05:17:24;;;;;;;25.17;14.25;;;5.80;64.30;;;4.32;65.01;96759.63;5008488;28;20125;-65
2022/03/28 05:19:50;;;;;;;20.23;13.48;;;5.90;64.20;;;4.32;63.39;96764.81;4991993;28;20526;-65
2022/03/28 05:22:17;;;;;;;23.90;13.65;;;5.90;63.80;;;4.33;63.26;96763.88;5008209;28;20041;-65
2022/03/28 05:24:42;;;;;;;22.92;15.13;;;5.90;63.70;;;4.32;64.07;96757.84;4991694;28;20532;-65
2022/03/28 05:27:08;;;;;;;25.83;14.20;;;5.90;64.10;;;4.33;63.42;96758.66;5008362;28;20085;-65
2022/03/28 05:29:34;;;;;;;21.65;13.68;;;5.90;63.80;;;4.34;63.34;96752.50;4987768;28;20049;-65
2022/03/28 05:32:01;;;;;;;24.27;14.88;;;5.90;64.20;;;4.36;63.55;96761.81;4988065;28;20567;-65
2022/03/28 05:34:30;;;;;;;24.45;15.07;;;6.00;63.80;;;4.37;64.07;96752.22;5009052;28;20033;-65
2022/03/28 05:37:00;;;;;;;30.55;14.43;;;6.00;63.60;;;4.37;63.59;96757.44;4992045;28;20041;-65
2022/03/28 05:39:26;;;;;;;27.02;14.82;;;6.00;63.60;;;4.38;63.51;96764.28;5008524;28;20406;-65
2022/03/28 05:41:52;;;;;;;24.60;15.57;;;6.00;63.60;;;4.40;64.27;96757.16;4974549;28;20122;-65
2022/03/28 05:44:19;;;;;;;30.67;16.23;;;6.10;63.50;;;4.41;63.60;96758.81;4990486;28;20034;-65
2022/03/28 05:46:45;;;;;;;23.98;15.88;;;6.10;63.50;;;4.43;64.04;96762.09;4987503;28;20023;-65
2022/03/28 05:49:11;;;;;;;25.98;14.38;;;6.10;63.60;;;4.46;64.21;96761.81;5005783;28;20037;-65
2022/03/28 05:51:37;;;;;;;24.48;15.82;;;6.20;63.30;;;4.49;63.90;96766.75;5008057;28;20096;-65
2022/03/28 05:54:03;;;;;;;27.40;14.60;;;6.20;63.10;;;4.52;63.63;96766.47;5008532;28;20049;-66
2022/03/28 05:56:28;;;;;;;26.50;14.95;;;6.30;62.90;;;4.55;63.78;96768.84;5007978;28;20413;-65
2022/03/28 05:58:54;;;;;;;26.25;15.10;;;6.30;62.70;;;4.58;64.28;96768.56;5008656;28;20564;-65
2022/03/28 06:01:20;;;;;;;25.80;14.95;;;6.40;62.50;;;4.63;63.87;96779.41;5008828;28;20038;-65
2022/03/28 06:03:46;;;;;;;24.35;15.15;;;6.50;62.10;;;4.69;64.14;96773.63;4985391;28;20038;-68
2022/03/28 06:06:12;;;;;;;24.30;13.82;;;6.60;61.80;;;4.75;64.16;96772.25;4996406;28;20054;-66
2022/03/28 06:08:38;;;;;;;26.48;14.70;;;6.70;61.60;;;4.84;64.13;96767.06;4987804;28;20022;-66
2022/03/28 06:11:04;;;;;;;24.98;14.40;;;6.90;61.30;;;4.93;63.42;96771.44;4990858;28;20022;-66
2022/03/28 06:13:30;;;;;;;25.10;14.25;;;7.10;60.80;;;5.03;63.41;96770.66;5004240;28;20053;-69
2022/03/28 06:15:56;;;;;;;26.02;14.85;;;7.20;60.20;;;5.11;63.29;96775.97;4996329;28;20089;-69
2022/03/28 06:18:22;;;;;;;21.27;14.40;;;7.30;60.10;;;5.19;63.29;96773.50;5000493;28;20041;-67
2022/03/28 06:20:48;;;;;;;23.70;15.10;;;7.40;59.70;;;5.31;62.85;96769.78;5001396;28;20037;-69
2022/03/28 06:23:14;;;;;;;23.48;14.30;;;7.60;59.20;;;5.43;62.95;96773.03;5001237;28;20064;-69
2022/03/28 06:25:40;;;;;;;27.13;13.23;;;7.80;58.30;;;5.54;63.42;96760.69;5016042;28;20080;-65
2022/03/28 06:28:06;;;;;;;22.92;13.63;;;8.10;58.00;;;5.67;62.76;96763.00;4991055;28;20041;-64
2022/03/28 06:30:32;;;;;;;20.52;13.85;;;8.20;57.50;;;5.80;62.42;96762.66;5010332;28;20026;-66
2022/03/28 06:32:57;;;;;;;23.35;13.90;;;8.30;57.00;;;5.92;62.80;96769.38;4991677;28;20104;-65
2022/03/28 06:35:23;;;;;;;18.05;13.35;;;8.50;56.50;;;6.06;61.85;96763.66;5009803;28;20061;-66
2022/03/28 06:37:52;;;;;;;21.38;13.38;;;8.70;55.90;;;6.22;62.08;96759.63;5007533;28;20068;-66
2022/03/28 06:40:17;;;;;;;22.50;13.73;;;8.90;55.60;;;6.37;61.61;96758.16;5007294;28;20058;-65
2022/03/28 06:42:43;;;;;;;20.63;13.43;;;9.10;55.20;;;6.50;61.51;96758.63;4990616;28;20053;-67
2022/03/28 06:45:10;;;;;;;18.10;13.23;;;9.10;54.70;;;6.65;61.11;96765.00;4991651;28;20046;-66
2022/03/28 06:47:39;;;;;;;21.00;13.05;;;9.30;54.90;;;6.78;61.59;96769.84;5021323;28;20029;-66
2022/03/28 06:50:06;;;;;;;26.95;13.80;;;9.40;54.40;;;6.92;60.74;96768.53;5021205;28;20472;-66
2022/03/28 06:52:33;;;;;;;19.23;13.70;;;9.60;54.10;;;7.06;60.77;96770.63;4995125;28;20037;-65
2022/03/28 06:54:59;;;;;;;20.23;13.57;;;9.80;54.20;;;7.22;61.12;96767.28;4992247;28;20066;-66
2022/03/28 06:57:24;;;;;;;21.40;13.70;;;10.00;53.10;;;7.36;60.64;96762.34;5008588;28;20409;-66
2022/03/28 06:59:50;;;;;;;25.55;14.10;;;10.30;52.60;;;7.53;59.67;96768.53;5010500;28;20456;-66
2022/03/28 07:02:16;;;;;;;20.67;13.60;;;10.50;51.80;;;7.72;60.23;96757.03;5005220;28;20353;-65
2022/03/28 07:04:41;;;;;;;32.33;14.15;;;10.70;51.50;;;7.91;59.26;96767.25;5036246;28;20048;-66
2022/03/28 07:07:11;;;;;;;16.40;13.57;;;10.90;50.80;;;8.08;59.07;96757.69;5023376;28;20073;-66
2022/03/28 07:09:37;;;;;;;19.42;13.32;;;11.10;50.20;;;8.20;58.90;96759.06;5010434;28;20026;-66
2022/03/28 07:12:05;;;;;;;18.63;13.48;;;11.40;50.30;;;8.41;58.12;96750.00;5007129;28;20034;-66
2022/03/28 07:14:34;;;;;;;22.10;14.02;;;11.60;49.60;;;8.62;58.29;96749.56;5017648;28;20188;-65
2022/03/28 07:17:00;;;;;;;18.83;13.38;;;11.80;48.80;;;8.79;57.25;96748.59;4999638;28;20044;-66
2022/03/28 07:19:26;;;;;;;20.42;13.10;;;12.00;48.00;;;8.99;57.12;96742.06;5012153;28;20053;-63
2022/03/28 07:21:52;;;;;;;18.67;13.43;;;12.30;47.30;;;9.21;56.03;96741.41;5014567;28;20084;-62
2022/03/28 07:24:17;;;;;;;17.25;12.50;;;12.60;46.80;;;9.44;56.66;96740.72;5026384;28;20494;-67
2022/03/28 07:26:45;;;;;;;17.52;13.23;;;12.70;46.10;;;9.64;55.89;96736.75;5002881;28;20030;-67
2022/03/28 07:29:11;;;;;;;19.80;13.27;;;12.90;45.90;;;9.86;55.30;96742.31;5008391;28;20061;-67
2022/03/28 07:31:39;;;;;;;17.90;13.07;;;13.10;45.60;;;10.08;54.78;96738.94;5004388;28;20104;-68
2022/03/28 07:36:51;;;;;;;17.88;13.30;;;13.70;44.50;;;10.55;53.55;96735.47;5011182;28;20044;-66
2022/03/28 07:39:20;;;;;;;21.30;13.07;;;14.10;43.70;;;10.72;53.52;96731.75;5007219;28;20081;-66
2022/03/28 07:41:49;;;;;;;19.05;13.15;;;14.20;42.90;;;10.97;52.85;96729.78;4986737;28;20125;-67
2022/03/28 07:44:15;;;;;;;21.63;13.65;;;14.70;41.90;;;11.19;52.10;96728.13;5007083;28;20057;-65
2022/03/28 07:46:41;;;;;;;20.83;13.18;;;15.10;41.30;;;11.45;51.96;96718.03;5008774;28;20237;-68
2022/03/28 07:49:07;;;;;;;23.33;13.10;;;15.60;40.30;;;11.74;51.48;96711.97;5008573;28;20557;-62
2022/03/28 07:51:33;;;;;;;17.25;13.15;;;16.10;38.90;;;12.01;50.55;96718.47;5009017;28;20433;-67
2022/03/28 07:53:59;;;;;;;15.52;12.73;;;16.60;38.10;;;12.33;50.62;96711.16;5004721;28;20053;-68
2022/03/28 07:56:25;;;;;;;17.60;12.73;;;17.10;37.30;;;12.61;49.19;96711.25;4997409;28;20650;-68
2022/03/28 07:58:51;;;;;;;17.52;13.20;;;17.50;35.70;;;12.88;48.66;96707.88;4986335;28;20038;-67
2022/03/28 08:01:17;;;;;;;18.95;13.15;;;17.80;35.30;;;13.21;48.03;96705.59;5002112;28;20042;-66
2022/03/28 08:03:42;;;;;;;20.40;13.88;;;18.30;34.10;;;13.46;47.19;96709.47;5008825;28;20034;-67
2022/03/28 08:06:08;;;;;;;19.40;13.10;;;18.60;33.40;;;13.76;47.44;96699.50;5000243;28;20077;-65
2022/03/28 08:08:35;;;;;;;22.30;12.82;;;19.10;33.30;;;14.07;46.25;96707.00;5006024;28;20030;-66
2022/03/28 08:11:01;;;;;;;22.50;13.15;;;19.30;32.60;;;14.44;46.09;96697.00;4985675;28;20041;-67
2022/03/28 08:13:27;;;;;;;19.42;13.05;;;19.80;32.40;;;14.81;46.15;96697.53;5024839;28;20026;-67
2022/03/28 08:15:52;;;;;;;18.73;13.05;;;20.10;31.70;;;15.11;43.59;96692.66;5001416;28;20045;-67
2022/03/28 08:18:19;;;;;;;19.45;13.18;;;20.30;31.10;;;15.45;43.14;96694.31;5006897;28;20054;-66
2022/03/28 08:20:45;;;;;;;20.35;13.15;;;20.60;31.00;;;15.82;42.81;96696.34;5002333;28;20034;-68
2022/03/28 08:23:10;;;;;;;17.85;13.20;;;20.90;30.20;;;16.14;42.61;96692.00;5008818;28;20037;-66
2022/03/28 08:25:36;;;;;;;18.02;13.30;;;21.30;29.90;;;16.48;42.06;96680.19;5009526;28;20045;-67
2022/03/28 08:28:02;;;;;;;17.60;12.13;;;21.70;29.80;;;16.84;41.08;96678.81;4983761;28;20041;-65
2022/03/28 08:30:28;;;;;;;17.45;12.43;;;22.00;29.10;;;17.11;39.56;96680.25;4993890;28;20112;-69
2022/03/28 08:32:55;;;;;;;20.52;14.40;;;22.10;28.60;;;17.39;39.91;96692.31;5006702;28;20121;-67
2022/03/28 08:35:21;;;;;;;23.48;14.32;;;22.40;28.60;;;17.66;38.58;96677.78;4993186;28;20038;-68
2022/03/28 08:37:47;;;;;;;20.35;12.75;;;22.60;28.10;;;17.94;38.06;96673.84;5016499;28;20084;-67
2022/03/28 08:40:17;;;;;;;18.55;12.45;;;22.80;28.20;;;18.19;36.78;96681.75;5013688;28;20038;-67
2022/03/28 08:42:43;;;;;;;13.98;9.57;;;23.00;27.90;;;18.38;38.10;96675.38;5010116;28;20045;-67
2022/03/28 08:45:11;;;;;;;18.63;12.10;;;23.40;28.10;;;18.64;38.47;96676.94;4998972;28;20034;-67
2022/03/28 08:47:40;;;;;;;17.25;12.70;;;23.60;27.50;;;18.88;36.34;96675.97;5001062;28;20042;-66
2022/03/28 08:50:06;;;;;;;16.58;12.27;;;23.90;26.70;;;19.06;36.41;96675.09;4991093;28;20182;-62
2022/03/28 08:52:32;;;;;;;21.17;13.77;;;23.80;26.50;;;19.29;36.18;96671.66;5013170;28;20041;-62
2022/03/28 08:54:58;;;;;;;20.60;12.07;;;24.10;25.40;;;19.45;35.72;96672.81;5019931;28;20096;-63
2022/03/28 08:57:24;;;;;;;21.67;12.50;;;24.20;26.00;;;19.66;35.03;96666.97;5002823;28;20120;-68
2022/03/28 08:59:49;;;;;;;18.83;13.13;;;24.50;25.90;;;19.88;34.58;96664.50;4991604;28;20038;-66
2022/03/28 09:02:37;;;;;;;20.30;13.57;;;24.70;25.70;;;20.14;32.66;96666.72;4999842;28;20099;-67
2022/03/28 09:05:02;;;;;;;16.23;12.00;;;24.80;24.90;;;20.32;34.31;96656.88;4997223;28;20053;-67
2022/03/28 09:07:28;;;;;;;19.88;13.50;;;25.20;24.90;;;20.60;33.26;96656.16;5016583;28;20034;-67
2022/03/28 09:10:12;;;;;;;21.05;12.98;;;25.50;24.60;;;20.90;32.56;96661.25;5012439;28;20034;-68
2022/03/28 09:13:03;;;;;;;17.50;12.48;;;25.70;25.10;;;21.28;32.33;96658.72;5001693;28;20128;-67
2022/03/28 09:15:47;;;;;;;;;;;26.10;24.30;;;21.58;31.33;96652.22;5000963;28;20501;-66
2022/03/28 09:18:39;;;;;;;19.85;12.73;;;26.40;23.40;;;21.80;30.74;96644.25;5016187;28;20292;-68
2022/03/28 09:21:10;;;;;;;18.65;12.55;;;26.40;23.70;;;22.11;31.75;96648.16;5003404;28;20100;-67
2022/03/28 09:23:44;;;;;;;17.40;12.70;;;26.80;23.50;;;22.36;31.45;96640.44;5004685;28;20030;-66
2022/03/28 09:26:23;;;;;;;21.88;12.75;;;26.70;23.40;;;22.63;30.06;96643.16;5002942;28;20343;-66
2022/03/28 09:29:00;;;;;;;21.42;13.13;;;27.10;22.90;;;22.86;28.70;96634.88;5006480;28;20111;-65
2022/03/28 09:31:37;;;;;;;17.80;12.90;;;27.20;21.90;;;23.11;29.42;96631.59;5003260;28;20095;-66
2022/03/28 09:34:23;;;;;;;18.67;12.63;;;27.50;22.30;;;23.45;28.16;96634.00;5007543;28;20110;-70
2022/03/28 09:36:55;;;;;;;21.77;12.93;;;27.80;22.10;;;23.70;26.96;96628.84;4974379;28;20041;-66
2022/03/28 09:39:26;;;;;;;22.02;12.55;;;27.80;20.90;;;23.92;28.32;96617.94;5006654;28;20034;-66
2022/03/28 09:42:05;;;;;;;;;;;28.20;21.20;;;24.08;27.20;96626.91;4999492;28;20057;-67
2022/03/28 09:44:46;;;;;;;24.20;13.75;;;28.20;20.40;;;24.26;27.16;96623.75;4997864;28;19987;-67
2022/03/28 09:47:14;;;;;;;19.35;13.48;;;28.60;20.10;;;24.50;27.87;96615.25;5000977;28;20046;-66
2022/03/28 09:49:42;;;;;;;17.85;12.63;;;29.00;19.30;;;24.60;27.19;96609.91;5006674;28;20124;-66
2022/03/28 09:52:29;;;;;;;18.67;12.23;;;29.00;19.10;;;24.76;24.74;96611.56;5007017;28;20038;-66
2022/03/28 09:55:04;;;;;;;17.90;11.98;;;29.20;18.90;;;24.91;24.59;96597.31;4998897;28;20358;-67
2022/03/28 09:57:33;;;;;;;16.95;11.75;;;29.70;18.10;;;25.02;25.32;96602.47;5000883;28;20099;-67
2022/03/28 10:00:09;;;;;;;23.23;11.38;;;29.90;18.20;;;25.28;24.29;96597.06;4983261;28;20096;-67
2022/03/28 10:02:35;;;;;;;17.00;11.85;;;30.20;18.30;;;25.48;25.55;96596.25;4995965;28;20091;-65
2022/03/28 10:05:01;;;;;;;17.02;12.07;;;30.70;17.70;;;25.80;25.55;96594.09;5019152;28;20041;-66
2022/03/28 10:07:27;;;;;;;19.95;11.77;;;31.40;17.20;;;26.12;25.24;96585.59;5006831;28;20042;-67
2022/03/28 10:09:53;;;;;;;16.88;12.07;;;31.80;16.50;;;26.58;25.69;96576.50;5002783;28;20084;-65
2022/03/28 10:12:19;;;;;;;19.15;12.40;;;32.50;16.50;;;27.13;25.42;96583.44;5019619;28;20042;-65
2022/03/28 10:14:49;;;;;;;19.98;12.05;;;32.70;16.40;;;27.75;23.76;96573.69;5012661;28;20129;-64
2022/03/28 10:17:14;;;;;;;18.42;11.57;;;33.50;15.80;;;28.28;24.81;96574.44;5019124;28;20054;-64